Tri Cities Regional Tn Va Airport Bristol,Johnson,Kingsport US
ICAO: KTRI
IATA: TRI
Category: Large
Scheduled Services: Yes

Elevation: 1519 ft
TransAlt. 18000 ft.

Airport Communications:
APP:119.25
ATIS:118.25
CTAF:119.5
DEP:125.5
GND:121.7
NASHVILLE RDO:122.2
TWR:119.5
UNICOM:122.95

KTRI Zoom In..

Runways:

(A) RW 05 length 8000 ft width 150 ft
ILS 111.50 / hdg 48

(B) RW 09 length 4442 ft width 150 ft
---- / hdg 94

(C) RW 23 length 8000 ft width 150 ft
ILS 109.90 / hdg 228

(D) RW 27 length 4442 ft width 150 ft
---- / hdg 274

Location; KTRI
Day. 24 / Time. 01.53 Zulu
* Altimeter: 30.04
* Temperature: 07° c. 44.6°f.
* Wind from: KTR° Speed I kn.
Dewpoint: -01° c.
Visibility: 10 Statute Miles.
Clouds: Overcast 4900 ft.

KTRI 240153Z 28010KT 10SM OVC049 07/M01 A3004 RMK AO2 SLP164 T00721011 $


Wind From KTR°
Speed I kn.

YouTube Music Video
 
jpsmedia.com for Web Design  worldairports.se 2018   terms of use